Time;durP1;ratioP1;P1;durP2;ratioP2;P2;SDS_P1;SDS_P2;PMS_P1;PMS_P2;Temp;Humidity;BMP_temperature;BMP_pressure;BME280_temperature;BME280_humidity;BME280_pressure;Samples;Min_cycle;Max_cycle;Signal;HPM_P1;HPM_P2
2023/06/15 00:01:33;;;;;;;;;;;14.90;99.90;;;;;;5019449;28;20061;-92
2023/06/15 00:04:00;;;;;;;5.32;2.55;;;14.90;99.90;;;;;;5016598;28;20266;-92
2023/06/15 00:06:27;;;;;;;8.93;2.58;;;14.80;99.90;;;;;;5034780;28;20049;-93
2023/06/15 00:08:54;;;;;;;4.78;2.00;;;14.70;99.90;;;;;;5017225;28;20029;-94
2023/06/15 00:11:20;;;;;;;4.05;1.80;;;14.60;99.90;;;;;;5016419;28;20088;-93
2023/06/15 00:13:45;;;;;;;;;;;14.60;99.90;;;;;;5034693;28;20041;-93
2023/06/15 00:16:12;;;;;;;3.80;2.20;;;14.50;99.90;;;;;;5026412;28;19945;-92
2023/06/15 00:18:40;;;;;;;6.95;2.53;;;14.40;99.90;;;;;;5054231;28;20489;-92
2023/06/15 00:21:08;;;;;;;6.55;2.30;;;14.30;99.90;;;;;;5040734;28;20552;-92
2023/06/15 00:23:34;;;;;;;3.50;1.90;;;14.30;99.90;;;;;;5031670;28;20087;-91
2023/06/15 00:25:59;;;;;;;;;;;14.20;99.90;;;;;;5032856;28;20029;-91
2023/06/15 00:28:25;;;;;;;4.68;2.25;;;14.10;99.90;;;;;;5033644;28;19920;-91
2023/06/15 00:30:51;;;;;;;3.50;2.28;;;14.00;99.90;;;;;;5015931;28;20022;-91
2023/06/15 00:33:17;;;;;;;;;;;14.00;99.90;;;;;;5017349;28;20025;-91
2023/06/15 00:35:42;;;;;;;3.88;2.20;;;14.00;99.90;;;;;;5015600;28;19905;-92
2023/06/15 00:38:08;;;;;;;;;;;14.00;99.90;;;;;;5033787;28;20026;-91
2023/06/15 00:40:37;;;;;;;4.35;2.20;;;13.90;99.90;;;;;;5032397;28;20000;-91
2023/06/15 00:43:03;;;;;;;4.28;2.60;;;13.90;99.90;;;;;;5033581;28;20029;-90
2023/06/15 00:45:28;;;;;;;;;;;13.90;99.90;;;;;;5016227;28;20375;-89
2023/06/15 00:47:54;;;;;;;6.05;2.45;;;13.90;99.90;;;;;;5015987;28;20404;-91
2023/06/15 00:50:19;;;;;;;;;;;13.80;99.90;;;;;;5016084;28;20021;-91
2023/06/15 00:52:48;;;;;;;7.38;2.67;;;13.80;99.90;;;;;;5034437;28;19944;-90
2023/06/15 00:55:14;;;;;;;9.25;2.72;;;13.70;99.90;;;;;;5015940;28;20026;-89
2023/06/15 00:57:44;;;;;;;8.90;2.30;;;13.70;99.90;;;;;;5020249;28;20072;-90
2023/06/15 01:00:17;;;;;;;4.60;2.58;;;13.60;99.90;;;;;;5016394;28;20030;-90
2023/06/15 01:02:44;;;;;;;8.80;2.42;;;13.60;99.90;;;;;;5015753;28;20025;-92
2023/06/15 01:05:10;;;;;;;8.48;2.50;;;13.60;99.90;;;;;;5015374;28;20103;-92
2023/06/15 01:07:40;;;;;;;;;;;13.60;99.90;;;;;;5015834;28;20072;-93
2023/06/15 01:10:09;;;;;;;6.20;2.83;;;13.60;99.90;;;;;;5015856;28;19944;-93
2023/06/15 01:12:40;;;;;;;5.72;2.03;;;13.60;99.90;;;;;;5015934;28;20536;-92
2023/06/15 01:15:10;;;;;;;5.68;2.50;;;13.60;99.90;;;;;;5019132;28;20136;-92
2023/06/15 01:17:44;;;;;;;8.18;2.80;;;13.50;99.90;;;;;;5014630;28;20040;-92
2023/06/15 01:20:25;;;;;;;5.28;2.90;;;13.40;99.90;;;;;;5015636;28;20109;-92
2023/06/15 01:23:12;;;;;;;4.57;2.60;;;13.40;99.90;;;;;;5015617;28;20029;-93
2023/06/15 01:25:59;;;;;;;4.20;2.58;;;13.40;99.90;;;;;;5016461;28;20040;-92
2023/06/15 01:28:26;;;;;;;6.38;2.80;;;13.30;99.90;;;;;;5016114;28;20745;-92
2023/06/15 01:30:53;;;;;;;9.05;3.03;;;13.20;99.90;;;;;;5035546;28;20514;-92
2023/06/15 01:33:21;;;;;;;4.47;2.78;;;13.20;99.90;;;;;;5016207;28;20490;-92
2023/06/15 01:35:47;;;;;;;5.82;2.47;;;13.10;99.90;;;;;;5033920;28;20009;-93
2023/06/15 01:38:13;;;;;;;;;;;13.10;99.90;;;;;;5035989;28;20395;-93
2023/06/15 01:40:46;;;;;;;7.23;3.13;;;13.10;99.90;;;;;;5033222;28;19905;-92
2023/06/15 01:43:15;;;;;;;4.32;2.25;;;13.10;99.90;;;;;;5035294;28;20043;-92
2023/06/15 01:45:42;;;;;;;4.63;2.72;;;13.10;99.90;;;;;;5016105;28;20025;-91
2023/06/15 01:48:08;;;;;;;8.48;3.83;;;13.10;99.90;;;;;;5018456;28;20045;-92
2023/06/15 01:50:35;;;;;;;6.22;3.05;;;13.00;99.90;;;;;;5022068;28;20022;-92
2023/06/15 01:53:01;;;;;;;6.68;2.80;;;13.10;99.90;;;;;;5019473;28;20029;-92
2023/06/15 01:55:27;;;;;;;;;;;13.10;99.90;;;;;;5022884;28;20079;-93
2023/06/15 01:57:53;;;;;;;5.78;2.58;;;13.10;99.90;;;;;;5041517;28;19928;-92
2023/06/15 02:00:21;;;;;;;4.70;2.38;;;13.00;99.90;;;;;;5021225;28;20036;-93
2023/06/15 02:02:47;;;;;;;5.00;2.50;;;13.00;99.90;;;;;;5039720;28;20028;-93
2023/06/15 02:05:13;;;;;;;;;;;13.00;99.90;;;;;;5021283;28;20037;-92
2023/06/15 02:07:39;;;;;;;4.25;2.63;;;13.00;99.90;;;;;;5019759;28;19913;-93
2023/06/15 02:10:05;;;;;;;4.95;3.03;;;13.00;99.90;;;;;;5020735;28;20032;-93
2023/06/15 02:12:31;;;;;;;4.35;2.50;;;13.00;99.90;;;;;;5039654;28;20060;-92
2023/06/15 02:14:57;;;;;;;;;;;13.00;99.90;;;;;;5020965;28;20029;-93
2023/06/15 02:17:30;;;;;;;4.73;2.63;;;13.00;99.90;;;;;;5019640;28;19905;-92
2023/06/15 02:19:56;;;;;;;5.55;2.50;;;12.90;99.90;;;;;;5019966;28;20029;-93
2023/06/15 02:22:22;;;;;;;6.07;2.47;;;12.90;99.90;;;;;;5019432;28;20025;-93
2023/06/15 02:24:47;;;;;;;;;;;12.90;99.90;;;;;;5021420;28;20401;-92
2023/06/15 02:27:13;;;;;;;5.68;3.20;;;12.90;99.90;;;;;;5019436;28;19913;-90
2023/06/15 02:29:39;;;;;;;;;;;12.90;99.90;;;;;;5028678;28;20009;-91
2023/06/15 02:32:05;;;;;;;5.43;2.67;;;12.90;99.90;;;;;;5041533;28;19893;-93
2023/06/15 02:34:32;;;;;;;;;;;12.90;99.90;;;;;;5054743;28;20041;-92
2023/06/15 02:37:00;;;;;;;;;;;12.90;99.90;;;;;;5051161;28;19909;-91
2023/06/15 02:39:26;;;;;;;4.40;2.15;;;12.90;99.90;;;;;;5028168;28;19951;-92
2023/06/15 02:41:51;;;;;;;;;;;12.90;99.90;;;;;;5021186;28;20029;-91
2023/06/15 02:44:17;;;;;;;5.47;2.85;;;12.90;99.90;;;;;;5019940;28;19963;-92
2023/06/15 02:46:43;;;;;;;6.70;3.17;;;12.80;99.90;;;;;;5020993;28;20067;-92
2023/06/15 02:49:09;;;;;;;;;;;12.80;99.90;;;;;;5035847;28;20057;-92
2023/06/15 02:51:37;;;;;;;6.78;2.63;;;12.80;99.90;;;;;;5016669;28;20381;-93
2023/06/15 02:54:04;;;;;;;7.55;2.92;;;12.80;99.90;;;;;;5016827;28;20045;-94
2023/06/15 02:56:29;;;;;;;6.63;2.40;;;12.80;99.90;;;;;;5042572;28;20026;-95
2023/06/15 02:58:55;;;;;;;;;;;12.80;99.90;;;;;;5032993;28;20101;-93
2023/06/15 03:01:23;;;;;;;9.07;2.80;;;12.80;99.90;;;;;;5034294;28;19909;-88
2023/06/15 03:03:49;;;;;;;5.10;2.95;;;12.80;99.90;;;;;;5024980;28;20021;-93
2023/06/15 03:06:15;;;;;;;4.03;2.58;;;12.90;99.90;;;;;;5035691;28;20026;-92
2023/06/15 03:08:42;;;;;;;;;;;12.90;99.90;;;;;;5017609;28;20570;-94
2023/06/15 03:11:08;;;;;;;;;;;12.90;99.90;;;;;;5017710;28;19913;-93
2023/06/15 03:13:34;;;;;;;8.32;3.30;;;12.90;99.90;;;;;;5035036;28;19935;-93
2023/06/15 03:16:01;;;;;;;;;;;13.00;99.90;;;;;;5016986;28;20026;-93
2023/06/15 03:18:30;;;;;;;;;;;13.00;99.90;;;;;;5017541;28;19977;-93
2023/06/15 03:20:57;;;;;;;6.78;2.60;;;12.90;99.90;;;;;;5017505;28;19905;-92
2023/06/15 03:23:25;;;;;;;9.63;3.15;;;12.90;99.90;;;;;;5017145;28;20032;-93
2023/06/15 03:25:52;;;;;;;8.45;3.13;;;13.00;99.90;;;;;;5017136;28;20025;-93
2023/06/15 03:28:27;;;;;;;4.57;2.67;;;12.90;99.90;;;;;;5017167;28;20037;-93
2023/06/15 03:30:56;;;;;;;7.70;2.72;;;13.00;99.90;;;;;;5016538;28;20053;-93
2023/06/15 03:33:22;;;;;;;8.50;2.83;;;13.00;99.90;;;;;;5016649;28;20029;-92
2023/06/15 03:35:49;;;;;;;;;;;13.10;99.90;;;;;;5017520;28;20041;-92
2023/06/15 03:38:18;;;;;;;6.45;2.85;;;13.10;99.90;;;;;;5016969;28;19905;-94
2023/06/15 03:40:43;;;;;;;6.93;3.08;;;13.20;99.90;;;;;;5034633;28;20041;-93
2023/06/15 03:43:10;;;;;;;;;;;13.20;99.90;;;;;;5017419;28;20382;-93
2023/06/15 03:45:35;;;;;;;8.02;3.13;;;13.30;99.90;;;;;;5016419;28;20377;-94
2023/06/15 03:48:01;;;;;;;;;;;13.40;99.90;;;;;;5017363;28;20041;-93
2023/06/15 03:50:26;;;;;;;6.05;2.95;;;13.50;99.90;;;;;;5034642;28;20011;-93
2023/06/15 03:52:52;;;;;;;;;;;13.60;99.90;;;;;;5017271;28;20064;-92
2023/06/15 03:55:18;;;;;;;4.30;2.50;;;13.70;99.90;;;;;;5017048;28;19909;-93
2023/06/15 03:57:44;;;;;;;;;;;13.80;99.90;;;;;;5018248;28;20022;-94
2023/06/15 04:00:10;;;;;;;3.97;2.50;;;14.00;99.90;;;;;;5017930;28;20003;-93
2023/06/15 04:02:36;;;;;;;7.70;3.00;;;14.20;99.90;;;;;;5017228;28;20037;-94
2023/06/15 04:05:02;;;;;;;;;;;14.30;99.90;;;;;;5017596;28;20022;-95
2023/06/15 04:07:29;;;;;;;6.13;3.05;;;14.70;99.90;;;;;;5017496;28;19921;-94
2023/06/15 04:09:55;;;;;;;7.50;2.75;;;15.10;99.90;;;;;;5017741;28;20021;-94
2023/06/15 04:12:20;;;;;;;;;;;15.40;99.90;;;;;;5017580;28;20036;-94
2023/06/15 04:14:46;;;;;;;5.53;2.20;;;15.60;99.90;;;;;;5017397;28;20296;-94
2023/06/15 04:17:12;;;;;;;3.85;2.65;;;15.80;99.90;;;;;;5018387;28;20799;-94
2023/06/15 04:19:38;;;;;;;3.85;2.10;;;15.80;99.90;;;;;;5018398;28;20413;-94
2023/06/15 04:22:05;;;;;;;7.53;2.38;;;16.00;99.90;;;;;;5019711;28;20025;-93
2023/06/15 04:24:30;;;;;;;4.65;2.42;;;16.10;99.90;;;;;;5037300;28;20049;-93
2023/06/15 04:26:59;;;;;;;10.07;4.03;;;16.10;99.90;;;;;;5018889;28;20521;-94
2023/06/15 04:29:29;;;;;;;10.15;3.38;;;16.30;99.90;;;;;;5021327;28;20096;-93
2023/06/15 04:31:57;;;;;;;7.65;3.30;;;16.40;99.90;;;;;;5037217;28;20021;-93
2023/06/15 04:34:24;;;;;;;4.88;2.97;;;16.50;99.90;;;;;;5033990;28;20040;-94
2023/06/15 04:36:50;;;;;;;8.77;3.10;;;16.70;99.90;;;;;;5056646;28;20025;-93
2023/06/15 04:39:17;;;;;;;4.78;2.53;;;16.80;99.90;;;;;;5027296;28;20026;-94
2023/06/15 04:41:42;;;;;;;5.68;3.00;;;16.90;99.90;;;;;;5019772;28;20059;-93
2023/06/15 04:44:08;;;;;;;6.32;2.60;;;17.00;99.90;;;;;;5019761;28;20034;-94
2023/06/15 04:46:39;;;;;;;5.07;2.50;;;17.10;99.90;;;;;;5036445;28;20029;-94
2023/06/15 04:49:06;;;;;;;7.88;3.58;;;17.20;99.90;;;;;;5017081;28;20168;-94
2023/06/15 04:51:32;;;;;;;6.60;2.55;;;17.30;99.90;;;;;;5017561;28;20172;-94
2023/06/15 04:53:58;;;;;;;4.43;2.55;;;17.40;99.90;;;;;;5020554;28;20056;-94
2023/06/15 04:56:23;;;;;;;5.30;2.20;;;17.50;99.90;;;;;;5022857;28;20029;-93
2023/06/15 04:58:49;;;;;;;3.30;1.83;;;17.60;99.90;;;;;;5025657;28;20021;-94
2023/06/15 05:01:15;;;;;;;5.55;1.88;;;17.70;99.90;;;;;;5022593;28;20128;-93
2023/06/15 05:03:42;;;;;;;6.22;2.72;;;17.90;99.90;;;;;;5023964;28;20048;-95
2023/06/15 05:06:07;;;;;;;6.28;2.80;;;18.00;99.90;;;;;;5023423;28;20033;-94
2023/06/15 05:08:34;;;;;;;3.05;2.13;;;18.20;99.90;;;;;;5022926;28;20116;-91
2023/06/15 05:11:00;;;;;;;3.40;2.25;;;18.30;99.90;;;;;;5032212;28;20026;-94
2023/06/15 05:13:26;;;;;;;4.70;2.15;;;18.40;99.90;;;;;;5014372;28;20460;-94
2023/06/15 05:15:52;;;;;;;6.13;1.88;;;18.60;99.90;;;;;;5032515;28;20089;-93
2023/06/15 05:18:19;;;;;;;5.00;1.95;;;18.70;99.90;;;;;;5032843;28;20060;-93
2023/06/15 05:20:45;;;;;;;6.63;2.05;;;19.00;99.90;;;;;;5014056;28;20466;-92
2023/06/15 05:23:11;;;;;;;2.97;1.48;;;19.20;99.90;;;;;;5035202;28;20108;-94
2023/06/15 05:25:37;;;;;;;3.53;1.52;;;19.50;99.90;;;;;;5036731;28;20117;-94
2023/06/15 05:28:03;;;;;;;8.38;2.00;;;19.50;98.70;;;;;;5018366;28;20136;-94
2023/06/15 05:30:29;;;;;;;3.05;1.77;;;19.60;99.80;;;;;;5019006;28;20018;-93
2023/06/15 05:32:55;;;;;;;3.83;2.17;;;19.70;99.30;;;;;;5036569;28;20033;-93
2023/06/15 05:35:21;;;;;;;4.53;2.15;;;19.70;97.80;;;;;;5036834;28;20025;-94
2023/06/15 05:37:47;;;;;;;2.50;1.65;;;19.80;97.20;;;;;;5058064;28;20181;-94
2023/06/15 05:40:12;;;;;;;3.33;1.83;;;20.00;97.90;;;;;;5040869;28;20013;-93
2023/06/15 05:42:39;;;;;;;5.30;1.85;;;20.30;96.00;;;;;;5021274;28;20401;-94
2023/06/15 05:45:05;;;;;;;6.53;2.53;;;20.40;93.30;;;;;;5018862;28;20026;-95
2023/06/15 05:47:32;;;;;;;3.60;1.77;;;20.60;94.00;;;;;;5019500;28;20479;-94
2023/06/15 05:49:57;;;;;;;2.70;1.52;;;21.00;89.70;;;;;;5018609;28;20022;-94
2023/06/15 05:52:23;;;;;;;5.07;2.05;;;21.10;86.80;;;;;;5019216;28;20148;-94
2023/06/15 05:54:49;;;;;;;14.77;1.75;;;21.60;88.50;;;;;;5020487;28;20030;-91
2023/06/15 05:57:15;;;;;;;4.65;1.55;;;22.40;83.10;;;;;;5022967;28;20116;-93
2023/06/15 05:59:40;;;;;;;2.83;1.95;;;23.40;76.80;;;;;;5023345;28;20028;-93
2023/06/15 06:02:08;;;;;;;6.60;2.55;;;24.70;64.80;;;;;;5025359;28;20049;-93
2023/06/15 06:04:34;;;;;;;10.45;2.25;;;25.90;59.70;;;;;;5023008;28;20026;-94
2023/06/15 06:07:00;;;;;;;5.10;1.75;;;27.00;54.30;;;;;;5041519;28;20029;-93
2023/06/15 06:09:26;;;;;;;9.82;1.77;;;27.40;50.60;;;;;;5028868;28;20026;-94
2023/06/15 06:11:51;;;;;;;4.03;1.95;;;28.30;47.70;;;;;;5024166;28;20030;-94
2023/06/15 06:14:17;;;;;;;6.15;2.05;;;29.10;43.70;;;;;;5027850;28;20133;-93
2023/06/15 06:16:44;;;;;;;3.42;1.60;;;29.30;42.70;;;;;;5025467;28;20029;-92
2023/06/15 06:19:10;;;;;;;4.53;2.10;;;29.00;42.50;;;;;;5028992;28;20025;-95
2023/06/15 06:21:36;;;;;;;2.00;1.40;;;29.90;41.40;;;;;;5028103;28;20049;-95
2023/06/15 06:24:02;;;;;;;1.85;1.48;;;30.60;39.50;;;;;;5033730;28;20037;-94
2023/06/15 06:26:28;;;;;;;3.80;1.85;;;30.50;38.90;;;;;;5025170;28;20079;-95
2023/06/15 06:28:55;;;;;;;2.88;1.88;;;30.80;38.80;;;;;;5024043;28;20037;-94
2023/06/15 06:31:21;;;;;;;3.90;1.30;;;31.20;36.80;;;;;;5045219;28;20039;-94
2023/06/15 06:33:46;;;;;;;3.58;2.05;;;31.30;37.10;;;;;;5043265;28;20097;-94
2023/06/15 06:36:12;;;;;;;6.00;2.00;;;31.30;37.00;;;;;;5045674;28;20021;-95
2023/06/15 06:38:38;;;;;;;4.07;1.80;;;31.40;35.40;;;;;;5042943;28;20029;-93
2023/06/15 06:41:04;;;;;;;4.15;2.05;;;31.50;35.30;;;;;;5024100;28;20041;-94
2023/06/15 06:43:29;;;;;;;3.58;1.77;;;31.70;35.20;;;;;;5043461;28;20017;-95
2023/06/15 06:45:56;;;;;;;4.07;1.60;;;32.20;35.20;;;;;;5024981;28;20025;-94
2023/06/15 06:48:22;;;;;;;8.77;1.80;;;32.20;35.20;;;;;;5022629;28;20048;-93
2023/06/15 06:50:47;;;;;;;4.50;1.30;;;32.20;33.50;;;;;;5030679;28;20026;-95
2023/06/15 06:53:13;;;;;;;5.90;2.15;;;32.00;33.70;;;;;;5034430;28;20048;-94
2023/06/15 06:55:39;;;;;;;1.90;1.52;;;31.60;35.00;;;;;;5025890;28;20025;-94
2023/06/15 06:58:05;;;;;;;9.50;1.92;;;32.10;34.60;;;;;;5024115;28;20029;-95
2023/06/15 07:00:31;;;;;;;3.75;1.90;;;31.60;34.30;;;;;;5043233;28;20017;-95
2023/06/15 07:02:57;;;;;;;3.63;1.95;;;31.60;34.30;;;;;;5042929;28;20104;-95
2023/06/15 07:05:23;;;;;;;3.25;2.00;;;31.50;34.00;;;;;;5042083;28;20490;-94
2023/06/15 07:07:48;;;;;;;3.55;1.80;;;30.80;35.00;;;;;;5042337;28;20037;-95
2023/06/15 07:10:14;;;;;;;4.30;2.08;;;30.80;35.60;;;;;;5040601;28;20405;-94
2023/06/15 07:12:40;;;;;;;6.13;1.60;;;31.00;34.70;;;;;;5043124;28;20116;-94
2023/06/15 07:15:06;;;;;;;5.15;1.58;;;30.90;35.50;;;;;;5041924;28;20057;-95
2023/06/15 07:17:33;;;;;;;3.95;1.73;;;30.20;37.10;;;;;;5044423;28;20022;-96
2023/06/15 07:19:59;;;;;;;4.45;1.88;;;30.00;38.40;;;;;;5027822;28;20410;-96
2023/06/15 07:22:25;;;;;;;5.65;1.83;;;29.90;38.20;;;;;;5026306;28;20546;-94
2023/06/15 07:24:51;;;;;;;3.72;1.80;;;30.60;37.60;;;;;;5023666;28;20061;-94
2023/06/15 07:27:21;;;;;;;6.45;1.95;;;30.70;37.40;;;;;;5023082;28;20107;-93
2023/06/15 07:29:47;;;;;;;4.00;1.98;;;30.80;36.10;;;;;;5041723;28;20022;-94
2023/06/15 07:32:13;;;;;;;6.88;1.50;;;31.00;37.30;;;;;;5040663;28;20069;-92
2023/06/15 07:34:39;;;;;;;3.30;1.63;;;31.30;35.70;;;;;;5028812;28;20033;-94
2023/06/15 07:37:06;;;;;;;9.82;2.03;;;31.50;36.20;;;;;;5026701;28;20048;-93
2023/06/15 07:39:32;;;;;;;4.03;1.60;;;31.60;35.40;;;;;;5040585;28;20040;-92
2023/06/15 07:41:58;;;;;;;5.90;1.73;;;31.40;36.10;;;;;;5041633;28;20030;-92
2023/06/15 07:44:23;;;;;;;10.23;2.03;;;31.20;36.10;;;;;;5045384;28;20060;-94
2023/06/15 07:46:49;;;;;;;2.88;1.95;;;30.70;35.60;;;;;;5043821;28;20025;-94
2023/06/15 07:49:15;;;;;;;5.72;1.75;;;30.90;35.50;;;;;;5027795;28;20048;-93
2023/06/15 07:51:41;;;;;;;2.88;1.60;;;30.90;36.70;;;;;;5046033;28;20599;-94
2023/06/15 07:54:07;;;;;;;6.97;1.80;;;31.30;36.50;;;;;;5032013;28;20505;-95
2023/06/15 07:56:32;;;;;;;4.90;1.70;;;31.80;36.60;;;;;;5046955;28;20025;-94
2023/06/15 07:58:59;;;;;;;4.30;1.90;;;32.10;36.50;;;;;;5047197;28;20033;-95
2023/06/15 08:01:25;;;;;;;5.78;1.70;;;32.20;34.30;;;;;;5029832;28;20041;-94
2023/06/15 08:03:51;;;;;;;4.43;1.92;;;32.40;34.40;;;;;;5028690;28;20036;-94
2023/06/15 08:06:17;;;;;;;8.10;2.08;;;32.50;34.30;;;;;;5050024;28;20579;-95
2023/06/15 08:08:44;;;;;;;3.70;1.65;;;32.20;34.60;;;;;;5043872;28;20033;-94
2023/06/15 08:11:10;;;;;;;4.18;1.80;;;31.80;34.90;;;;;;5028391;28;20032;-94
2023/06/15 08:13:37;;;;;;;5.20;2.28;;;31.40;36.20;;;;;;5026682;28;20038;-94
2023/06/15 08:16:06;;;;;;;14.20;1.92;;;31.20;36.10;;;;;;5043889;28;20055;-93
2023/06/15 08:18:32;;;;;;;2.97;1.60;;;31.50;35.20;;;;;;5039310;28;20029;-93
2023/06/15 08:20:58;;;;;;;3.40;1.65;;;31.90;35.10;;;;;;5018231;28;20033;-94
2023/06/15 08:23:24;;;;;;;3.70;1.70;;;32.20;35.60;;;;;;5016363;28;20117;-93
2023/06/15 08:25:59;;;;;;;5.30;1.80;;;32.30;34.30;;;;;;5019790;28;20044;-94
2023/06/15 08:28:25;;;;;;;3.97;1.98;;;32.40;34.80;;;;;;5022028;28;20088;-94
2023/06/15 08:30:51;;;;;;;5.50;1.77;;;32.30;34.10;;;;;;5023043;28;20080;-94
2023/06/15 08:33:18;;;;;;;7.63;2.65;;;32.60;33.30;;;;;;5037790;28;20028;-94
2023/06/15 08:35:44;;;;;;;8.98;2.58;;;32.30;34.40;;;;;;5019371;28;20017;-93
2023/06/15 08:38:10;;;;;;;5.93;1.70;;;32.40;35.20;;;;;;5018217;28;20033;-94
2023/06/15 08:40:35;;;;;;;10.40;1.85;;;32.50;34.80;;;;;;5035605;28;20029;-95
2023/06/15 08:43:03;;;;;;;5.35;1.73;;;32.80;34.40;;;;;;5027744;28;20028;-95
2023/06/15 08:45:38;;;;;;;10.05;1.85;;;33.00;33.40;;;;;;5042386;28;20025;-95
2023/06/15 08:48:07;;;;;;;3.05;1.73;;;33.00;33.20;;;;;;5020712;28;20422;-94
2023/06/15 08:50:35;;;;;;;5.05;2.10;;;33.50;33.40;;;;;;5023987;28;20079;-94
2023/06/15 08:53:02;;;;;;;5.15;1.77;;;33.80;32.70;;;;;;5018317;28;20026;-94
2023/06/15 08:55:28;;;;;;;3.10;1.90;;;33.80;32.60;;;;;;5016460;28;20119;-95
2023/06/15 08:57:54;;;;;;;3.75;1.60;;;33.60;33.40;;;;;;5015846;28;20449;-95
2023/06/15 09:00:20;;;;;;;6.32;3.58;;;32.60;31.40;;;;;;5015109;28;20045;-94
2023/06/15 09:02:46;;;;;;;3.78;1.92;;;32.20;33.10;;;;;;5015841;28;20493;-93
2023/06/15 09:05:12;;;;;;;9.88;2.30;;;31.40;34.20;;;;;;5032491;28;20033;-94
2023/06/15 09:07:38;;;;;;;3.42;1.77;;;30.50;33.80;;;;;;5015059;28;20038;-94
2023/06/15 09:10:14;;;;;;;5.93;1.92;;;30.00;35.40;;;;;;5014757;28;20096;-93
2023/06/15 09:12:52;;;;;;;11.40;2.35;;;29.60;36.20;;;;;;5015095;28;20494;-93
2023/06/15 09:15:22;;;;;;;3.53;2.08;;;29.60;37.50;;;;;;5015509;28;20041;-95
2023/06/15 09:17:51;;;;;;;7.82;2.33;;;29.90;38.10;;;;;;5015718;28;20034;-94
2023/06/15 09:20:19;;;;;;;11.57;2.13;;;30.50;38.20;;;;;;5032590;28;20715;-94
2023/06/15 09:22:45;;;;;;;9.18;2.60;;;30.90;36.20;;;;;;5032556;28;20544;-94
2023/06/15 09:25:17;;;;;;;6.15;2.10;;;31.50;34.70;;;;;;5015304;28;20030;-95
2023/06/15 09:27:58;;;;;;;4.03;2.17;;;31.50;35.70;;;;;;5032273;28;20564;-94
2023/06/15 09:30:31;;;;;;;5.00;2.75;;;32.00;35.50;;;;;;5032663;28;20053;-94
2023/06/15 09:33:18;;;;;;;7.88;2.42;;;32.40;33.10;;;;;;5015885;28;20025;-94
2023/06/15 09:35:57;;;;;;;4.32;2.20;;;32.40;33.80;;;;;;5015034;28;20041;-95
2023/06/15 09:38:27;;;;;;;7.07;2.28;;;32.50;31.00;;;;;;5033011;28;20033;-95
2023/06/15 09:40:53;;;;;;;8.18;2.17;;;32.50;31.70;;;;;;5015490;28;20044;-94
2023/06/15 09:43:20;;;;;;;5.70;1.95;;;32.50;31.60;;;;;;5014746;28;20657;-93
2023/06/15 09:45:53;;;;;;;4.85;1.88;;;32.30;31.50;;;;;;5015115;28;20049;-94
2023/06/15 09:48:19;;;;;;;3.53;2.10;;;32.70;32.20;;;;;;5015477;28;20045;-95
2023/06/15 09:51:00;;;;;;;6.15;1.98;;;33.30;32.30;;;;;;5015049;28;20041;-95
2023/06/15 09:53:28;;;;;;;2.85;1.73;;;33.80;32.30;;;;;;5015225;28;20038;-94
2023/06/15 09:55:54;;;;;;;3.45;1.67;;;34.00;30.30;;;;;;5015182;28;20025;-94
2023/06/15 09:58:20;;;;;;;6.38;2.65;;;33.30;30.00;;;;;;5016088;28;20121;-94
2023/06/15 10:00:47;;;;;;;3.40;2.33;;;32.50;30.80;;;;;;5015695;28;20076;-94
2023/06/15 10:03:18;;;;;;;5.43;1.90;;;31.30;32.70;;;;;;5015897;28;20037;-94
2023/06/15 10:05:45;;;;;;;3.72;1.70;;;30.40;34.80;;;;;;5019423;28;20085;-93
2023/06/15 10:08:13;;;;;;;3.25;2.10;;;30.00;35.30;;;;;;5017283;28;20475;-94
2023/06/15 10:10:42;;;;;;;6.20;2.38;;;29.10;36.30;;;;;;5018642;28;20049;-93
2023/06/15 10:13:20;;;;;;;4.80;2.25;;;28.40;36.70;;;;;;5018372;28;20045;-95
2023/06/15 10:15:52;;;;;;;6.85;2.53;;;27.80;38.20;;;;;;5018342;28;20037;-93
2023/06/15 10:18:22;;;;;;;4.20;2.13;;;27.50;38.70;;;;;;5016816;28;20033;-93
2023/06/15 10:20:53;;;;;;;5.60;2.25;;;27.40;40.50;;;;;;5017298;28;20078;-93
2023/06/15 10:23:29;;;;;;;6.60;2.55;;;27.00;39.90;;;;;;5017819;28;20079;-92
2023/06/15 10:25:57;;;;;;;6.90;2.40;;;26.70;41.20;;;;;;5035429;28;20024;-93
2023/06/15 10:28:27;;;;;;;5.95;2.63;;;26.50;42.50;;;;;;5017817;28;20025;-92
2023/06/15 10:31:12;;;;;;;10.75;2.90;;;26.30;41.80;;;;;;5017651;28;20465;-92
2023/06/15 10:33:45;;;;;;;9.57;2.58;;;26.10;42.10;;;;;;5018363;28;20025;-94
2023/06/15 10:36:17;;;;;;;7.53;2.78;;;26.10;42.50;;;;;;5023541;28;20033;-93
2023/06/15 10:39:11;;;;;;;9.75;2.13;;;26.30;41.70;;;;;;5035838;28;20616;-92
2023/06/15 10:41:37;;;;;;;4.15;2.30;;;26.30;42.90;;;;;;5035335;28;20516;-93
2023/06/15 10:44:05;;;;;;;8.60;2.42;;;26.70;43.70;;;;;;5017770;28;20104;-93
2023/06/15 10:46:33;;;;;;;4.40;2.42;;;27.00;42.60;;;;;;5023309;28;20105;-94
2023/06/15 10:49:03;;;;;;;7.72;2.50;;;27.00;40.40;;;;;;5023763;28;20080;-93
2023/06/15 10:51:32;;;;;;;5.50;2.58;;;27.00;41.70;;;;;;5019216;28;20500;-94
2023/06/15 10:53:59;;;;;;;6.38;2.97;;;27.00;41.40;;;;;;5017477;28;20075;-93
2023/06/15 10:56:28;;;;;;;4.65;2.17;;;26.80;41.10;;;;;;5017341;28;20030;-94
2023/06/15 10:59:08;;;;;;;5.68;2.20;;;26.90;40.80;;;;;;5035003;28;20096;-93
2023/06/15 11:01:33;;;;;;;3.75;2.78;;;27.00;39.30;;;;;;5017493;28;20726;-94
2023/06/15 11:04:29;;;;;;;5.40;2.25;;;26.80;39.50;;;;;;5018044;28;20025;-94
2023/06/15 11:06:56;;;;;;;5.80;2.65;;;26.80;41.60;;;;;;5017749;28;20405;-93
2023/06/15 11:09:24;;;;;;;5.25;2.22;;;26.70;42.10;;;;;;5017278;28;20120;-93
2023/06/15 11:11:50;;;;;;;8.25;3.05;;;26.70;42.90;;;;;;5016707;28;20022;-93
2023/06/15 11:14:19;;;;;;;3.13;2.13;;;26.60;42.20;;;;;;5017057;28;20049;-93
2023/06/15 11:16:45;;;;;;;10.05;2.13;;;26.70;43.00;;;;;;5017441;28;20029;-94
2023/06/15 11:19:11;;;;;;;10.38;2.38;;;26.70;43.10;;;;;;5017431;28;20099;-93
2023/06/15 11:21:56;;;;;;;10.43;2.45;;;26.70;42.90;;;;;;5017391;28;20022;-93
2023/06/15 11:24:24;;;;;;;3.42;2.10;;;26.70;42.20;;;;;;5017249;28;20124;-93
2023/06/15 11:26:50;;;;;;;6.22;3.08;;;26.70;42.30;;;;;;5016289;28;20029;-94
2023/06/15 11:29:22;;;;;;;5.05;2.92;;;26.80;42.50;;;;;;5016903;28;20512;-94
2023/06/15 11:31:49;;;;;;;8.55;6.00;;;26.80;43.00;;;;;;5018506;28;20018;-93
2023/06/15 11:34:15;;;;;;;5.20;2.95;;;26.90;42.50;;;;;;5019280;28;20037;-93
2023/06/15 11:36:41;;;;;;;7.05;2.08;;;26.90;42.80;;;;;;5035907;28;20441;-93
2023/06/15 11:39:23;;;;;;;10.23;2.60;;;26.90;42.00;;;;;;5017504;28;20440;-93
2023/06/15 11:41:49;;;;;;;4.95;2.90;;;26.90;40.40;;;;;;5036034;28;20060;-93
2023/06/15 11:44:15;;;;;;;5.93;2.38;;;26.80;43.20;;;;;;5018123;28;20030;-93
2023/06/15 11:46:41;;;;;;;9.45;2.70;;;26.80;40.80;;;;;;5017122;28;20017;-93
2023/06/15 11:49:11;;;;;;;6.00;2.83;;;26.80;41.60;;;;;;5051619;28;20124;-91
2023/06/15 11:51:41;;;;;;;6.97;2.55;;;27.00;41.10;;;;;;5039855;28;20017;-92
2023/06/15 11:54:11;;;;;;;7.82;2.78;;;27.00;39.90;;;;;;5024103;28;20022;-93
2023/06/15 11:56:46;;;;;;;12.18;2.92;;;27.20;39.60;;;;;;5020773;28;20026;-94
2023/06/15 11:59:16;;;;;;;6.97;2.93;;;27.30;40.60;;;;;;5016584;28;20022;-93
2023/06/15 12:01:42;;;;;;;6.40;2.35;;;27.40;41.00;;;;;;5016540;28;20126;-94
2023/06/15 12:04:13;;;;;;;9.05;3.58;;;27.60;41.00;;;;;;5015628;28;20029;-93
2023/06/15 12:06:48;;;;;;;7.43;2.90;;;27.80;40.70;;;;;;5015460;28;20036;-93
2023/06/15 12:09:16;;;;;;;7.38;2.58;;;28.00;40.60;;;;;;5015454;28;20144;-93
2023/06/15 12:11:43;;;;;;;7.35;2.83;;;28.10;39.50;;;;;;5033096;28;20026;-93
2023/06/15 12:14:11;;;;;;;13.20;3.13;;;28.20;39.10;;;;;;5033646;28;20726;-94
2023/06/15 12:16:38;;;;;;;5.10;2.15;;;28.30;39.20;;;;;;5014913;28;20045;-92
2023/06/15 12:19:08;;;;;;;5.07;2.60;;;28.20;39.00;;;;;;5033558;28;20482;-93
2023/06/15 12:21:38;;;;;;;6.82;2.17;;;28.10;39.20;;;;;;5015901;28;20029;-93
2023/06/15 12:24:15;;;;;;;5.38;2.40;;;28.20;38.20;;;;;;5033042;28;20017;-93
2023/06/15 12:26:47;;;;;;;3.75;2.08;;;28.20;38.30;;;;;;5018153;28;20041;-93
2023/06/15 12:29:15;;;;;;;5.78;2.28;;;28.10;39.00;;;;;;5025110;28;20044;-94
2023/06/15 12:31:43;;;;;;;4.35;2.13;;;28.20;38.10;;;;;;5017951;28;20022;-94
2023/06/15 12:34:09;;;;;;;7.90;2.50;;;28.00;39.10;;;;;;5015788;28;20029;-93
2023/06/15 12:36:39;;;;;;;7.45;2.53;;;27.90;40.50;;;;;;5032636;28;20545;-93
2023/06/15 12:39:10;;;;;;;6.03;2.30;;;27.80;40.60;;;;;;5015203;28;20028;-92
2023/06/15 12:41:41;;;;;;;5.78;2.20;;;28.00;40.10;;;;;;5015952;28;20029;-91
2023/06/15 12:44:07;;;;;;;9.38;2.05;;;27.70;40.50;;;;;;5016391;28;20056;-94
2023/06/15 12:46:38;;;;;;;6.13;2.67;;;27.50;41.50;;;;;;5015076;28;20024;-93
2023/06/15 12:49:04;;;;;;;5.90;2.95;;;27.40;40.70;;;;;;5014444;28;20065;-92
2023/06/15 12:51:30;;;;;;;5.50;2.67;;;27.00;40.90;;;;;;5014218;28;20018;-93
2023/06/15 12:53:56;;;;;;;8.77;2.65;;;26.80;42.00;;;;;;5015652;28;20093;-92
2023/06/15 12:56:26;;;;;;;3.95;2.45;;;26.60;43.50;;;;;;5032570;28;20026;-92